Time;durP1;ratioP1;P1;durP2;ratioP2;P2;SDS_P1;SDS_P2;PMS_P1;PMS_P2;Temp;Humidity;BMP_temperature;BMP_pressure;BME280_temperature;BME280_humidity;BME280_pressure;Samples;Min_cycle;Max_cycle;Signal;HPM_P1;HPM_P2
2024/01/01 00:01:04;;;;;;;11.20;7.18;;;;;;;6.54;69.78;99543.94;2533813;28;20518;-81
2024/01/01 00:02:18;;;;;;;7.18;5.65;;;;;;;6.57;69.54;99534.41;2525654;28;20511;-81
2024/01/01 00:03:31;;;;;;;12.82;7.82;;;;;;;6.59;69.62;99530.06;2524337;28;20077;-81
2024/01/01 00:04:46;;;;;;;10.60;6.18;;;;;;;6.61;70.12;99533.47;2526210;28;20046;-80
2024/01/01 00:06:01;;;;;;;12.32;7.45;;;;;;;6.63;70.05;99536.94;2524573;28;20050;-80
2024/01/01 00:07:16;;;;;;;18.10;13.63;;;;;;;6.66;69.77;99535.19;2524397;28;20054;-79
2024/01/01 00:08:29;;;;;;;11.52;6.43;;;;;;;6.72;69.46;99552.41;2524293;28;20511;-79
2024/01/01 00:09:44;;;;;;;8.98;7.53;;;;;;;6.74;69.51;99546.31;2526553;28;20052;-81
2024/01/01 00:10:57;;;;;;;12.32;5.28;;;;;;;6.78;68.98;99541.94;2533922;28;20049;-80
2024/01/01 00:12:11;;;;;;;11.77;6.78;;;;;;;6.81;69.37;99551.44;2533707;28;20056;-82
2024/01/01 00:13:26;;;;;;;12.43;6.45;;;;;;;6.82;69.13;99560.94;2533885;28;20046;-81
2024/01/01 00:14:41;;;;;;;11.32;7.28;;;;;;;6.86;69.05;99566.06;2534118;28;20057;-81
2024/01/01 00:15:54;;;;;;;13.38;8.00;;;;;;;6.88;69.10;99556.53;2534186;28;20525;-82
2024/01/01 00:17:08;;;;;;;12.90;8.35;;;;;;;6.89;69.39;99555.69;2533525;28;20045;-81
2024/01/01 00:18:22;;;;;;;37.38;18.77;;;;;;;6.90;69.44;99561.72;2533530;28;20049;-81
2024/01/01 00:19:36;;;;;;;10.85;6.72;;;;;;;6.91;69.64;99558.22;2533776;28;20494;-80
2024/01/01 00:20:50;;;;;;;10.95;8.05;;;;;;;6.93;69.23;99559.94;2533940;28;20426;-81
2024/01/01 00:22:04;;;;;;;8.95;5.65;;;;;;;6.94;68.71;99556.47;2533044;28;20055;-81
2024/01/01 00:23:18;;;;;;;11.38;5.80;;;;;;;6.95;68.76;99559.94;2533907;28;20072;-81
2024/01/01 00:24:32;;;;;;;9.63;6.78;;;;;;;6.95;69.00;99560.78;2533718;28;20049;-81
2024/01/01 00:25:45;;;;;;;9.55;6.55;;;;;;;6.96;68.95;99557.28;2532721;28;20042;-80
2024/01/01 00:27:00;;;;;;;8.35;6.68;;;;;;;6.98;68.97;99546.91;2533106;28;20491;-81
2024/01/01 00:28:13;;;;;;;9.57;5.85;;;;;;;6.97;68.77;99561.63;2533498;28;20053;-80
2024/01/01 00:29:29;;;;;;;7.35;4.78;;;;;;;6.98;68.92;99560.75;2533447;28;20060;-81
2024/01/01 00:30:43;;;;;;;13.40;7.15;;;;;;;6.97;68.84;99559.03;2533703;28;20045;-80
2024/01/01 00:31:57;;;;;;;10.05;5.38;;;;;;;6.99;68.74;99559.84;2533699;28;20059;-81
2024/01/01 00:33:11;;;;;;;10.43;5.13;;;;;;;6.99;68.55;99556.41;2533567;28;20054;-81
2024/01/01 00:34:25;;;;;;;9.75;6.10;;;;;;;7.01;68.20;99559.84;2533257;28;20053;-81
2024/01/01 00:35:38;;;;;;;7.65;5.70;;;;;;;7.03;68.66;99552.06;2533228;28;20430;-81
2024/01/01 00:36:53;;;;;;;6.03;4.80;;;;;;;7.04;68.36;99544.25;2533035;28;20045;-80
2024/01/01 00:38:06;;;;;;;8.70;5.57;;;;;;;7.05;68.11;99555.47;2532840;28;20084;-80
2024/01/01 00:39:20;;;;;;;8.80;6.32;;;;;;;7.05;68.15;99550.28;2533441;28;20502;-81
2024/01/01 00:40:34;;;;;;;8.40;5.30;;;;;;;7.05;68.55;99551.16;2533218;28;20052;-81
2024/01/01 00:41:48;;;;;;;9.35;5.53;;;;;;;7.05;68.46;99556.34;2532918;28;20506;-81
2024/01/01 00:43:02;;;;;;;7.63;5.05;;;;;;;7.04;68.78;99559.81;2532648;28;20052;-81
2024/01/01 00:44:16;;;;;;;7.93;5.03;;;;;;;7.03;68.62;99541.69;2533833;28;20486;-80
2024/01/01 00:45:31;;;;;;;7.18;6.13;;;;;;;7.02;69.47;99545.13;2532660;28;20442;-80
2024/01/01 00:46:45;;;;;;;12.65;6.10;;;;;;;7.00;68.89;99555.53;2533754;28;20080;-82
2024/01/01 00:47:59;;;;;;;12.98;5.50;;;;;;;7.01;68.88;99559.84;2533310;28;20076;-81
2024/01/01 00:49:13;;;;;;;8.85;5.88;;;;;;;7.01;69.14;99546.03;2532873;28;20054;-81
2024/01/01 00:50:26;;;;;;;9.57;5.63;;;;;;;7.01;69.03;99556.41;2532899;28;20070;-81
2024/01/01 00:51:41;;;;;;;10.20;5.82;;;;;;;7.01;69.04;99559.00;2533079;28;20056;-80
2024/01/01 00:52:54;;;;;;;11.70;7.00;;;;;;;7.02;68.97;99555.50;2533357;28;20053;-81
2024/01/01 00:54:09;;;;;;;10.93;5.97;;;;;;;6.99;68.97;99554.66;2532623;28;20140;-80
2024/01/01 00:55:22;;;;;;;12.65;7.72;;;;;;;6.99;69.06;99549.47;2533278;28;20057;-81
2024/01/01 00:56:36;;;;;;;10.57;5.70;;;;;;;7.00;69.42;99552.97;2533217;28;20053;-81
2024/01/01 00:57:50;;;;;;;9.10;7.68;;;;;;;6.99;69.43;99551.22;2532779;28;20045;-80
2024/01/01 00:59:04;;;;;;;10.05;6.65;;;;;;;6.98;69.34;99563.34;2533474;28;20041;-80
2024/01/01 01:00:18;;;;;;;10.13;7.32;;;;;;;6.97;69.28;99548.66;2532665;28;20049;-81
2024/01/01 01:01:34;;;;;;;9.90;6.60;;;;;;;6.98;69.76;99571.13;2532293;28;20053;-81
2024/01/01 01:02:47;;;;;;;17.42;7.57;;;;;;;6.97;70.64;99550.41;2533178;28;20415;-81
2024/01/01 01:04:02;;;;;;;17.60;8.32;;;;;;;6.96;69.88;99566.81;2533187;28;20049;-80
2024/01/01 01:05:16;;;;;;;13.68;9.18;;;;;;;6.94;69.82;99558.19;2533041;28;20098;-81
2024/01/01 01:06:30;;;;;;;8.68;7.53;;;;;;;6.94;70.01;99545.22;2532379;28;20129;-81
2024/01/01 01:07:44;;;;;;;14.07;9.95;;;;;;;6.91;70.03;99553.91;2533326;28;20049;-82
2024/01/01 01:08:58;;;;;;;12.93;9.50;;;;;;;6.89;70.14;99554.78;2532949;28;20505;-81
2024/01/01 01:10:13;;;;;;;11.98;9.00;;;;;;;6.87;70.40;99557.41;2532770;28;20052;-81
2024/01/01 01:11:27;;;;;;;12.85;9.70;;;;;;;6.85;70.74;99556.56;2532690;28;20050;-81
2024/01/01 01:12:41;;;;;;;13.40;8.90;;;;;;;6.83;70.59;99555.72;2532973;28;20046;-79
2024/01/01 01:13:56;;;;;;;13.77;10.00;;;;;;;6.82;71.71;99558.34;2532797;28;20045;-81
2024/01/01 01:15:09;;;;;;;10.95;9.38;;;;;;;6.78;71.35;99557.50;2533182;28;20495;-81
2024/01/01 01:16:23;;;;;;;16.20;10.18;;;;;;;6.75;71.68;99552.34;2533291;28;20053;-81
2024/01/01 01:17:38;;;;;;;15.15;9.10;;;;;;;6.71;71.42;99559.31;2532127;28;20395;-81
2024/01/01 01:18:53;;;;;;;11.57;8.45;;;;;;;6.67;71.85;99549.84;2533109;28;20092;-82
2024/01/01 01:20:07;;;;;;;13.52;9.60;;;;;;;6.64;71.93;99556.81;2532719;28;20049;-80
2024/01/01 01:21:21;;;;;;;15.10;10.38;;;;;;;6.63;72.41;99552.47;2533644;28;20053;-81
2024/01/01 01:22:35;;;;;;;12.02;8.32;;;;;;;6.60;72.51;99555.09;2535399;28;20471;-80
2024/01/01 01:23:49;;;;;;;13.05;10.93;;;;;;;6.59;72.04;99551.66;2535089;28;20049;-83
2024/01/01 01:25:03;;;;;;;9.23;6.53;;;;;;;6.57;72.21;99558.59;2535116;28;20041;-80
2024/01/01 01:26:17;;;;;;;13.57;10.27;;;;;;;6.57;72.07;99558.59;2535101;28;20527;-81
2024/01/01 01:27:31;;;;;;;16.30;7.75;;;;;;;6.55;71.97;99549.97;2535376;28;20046;-81
2024/01/01 01:28:45;;;;;;;10.65;7.30;;;;;;;6.55;71.99;99556.00;2535537;28;20049;-82
2024/01/01 01:29:59;;;;;;;11.52;9.02;;;;;;;6.53;71.70;99544.81;2534956;28;20044;-81
2024/01/01 01:31:13;;;;;;;10.18;6.28;;;;;;;6.54;71.87;99558.63;2535994;28;20056;-82
2024/01/01 01:32:26;;;;;;;11.48;6.88;;;;;;;6.52;71.95;99550.84;2535393;28;20041;-81
2024/01/01 01:33:42;;;;;;;10.90;6.82;;;;;;;6.54;72.12;99550.84;2535022;28;20438;-81
2024/01/01 01:34:56;;;;;;;11.48;7.00;;;;;;;6.53;71.96;99552.59;2534434;28;20049;-81
2024/01/01 01:36:10;;;;;;;6.82;5.55;;;;;;;6.54;72.28;99561.22;2535203;28;21254;-80
2024/01/01 01:37:23;;;;;;;10.88;5.82;;;;;;;6.56;71.25;99572.44;2534681;28;20072;-81
2024/01/01 01:38:38;;;;;;;7.10;4.57;;;;;;;6.57;71.64;99553.41;2533305;28;20049;-81
2024/01/01 01:39:51;;;;;;;6.07;5.47;;;;;;;6.59;71.54;99545.63;2535453;28;20045;-81
2024/01/01 01:41:06;;;;;;;8.63;4.68;;;;;;;6.60;71.19;99553.38;2535144;28;20068;-81
2024/01/01 01:42:20;;;;;;;6.13;5.53;;;;;;;6.59;71.39;99551.66;2534905;28;20049;-82
2024/01/01 01:43:34;;;;;;;7.13;5.05;;;;;;;6.60;71.40;99547.34;2534307;28;20049;-80
2024/01/01 01:44:48;;;;;;;6.57;3.55;;;;;;;6.60;70.96;99547.34;2535238;28;20073;-81
2024/01/01 01:46:02;;;;;;;12.10;5.70;;;;;;;6.62;71.37;99558.56;2535557;28;20045;-81
2024/01/01 01:47:16;;;;;;;7.22;3.55;;;;;;;6.62;71.05;99546.44;2535633;28;20041;-81
2024/01/01 01:48:31;;;;;;;8.43;4.97;;;;;;;6.64;70.73;99554.22;2534991;28;20072;-81
2024/01/01 01:49:46;;;;;;;6.68;5.35;;;;;;;6.66;71.09;99568.00;2533760;28;20075;-82
2024/01/01 01:51:02;;;;;;;7.40;5.65;;;;;;;6.66;71.08;99562.81;2535277;28;20045;-81
2024/01/01 01:52:15;;;;;;;5.88;4.07;;;;;;;6.66;70.98;99557.63;2535582;28;20202;-81
2024/01/01 01:53:30;;;;;;;17.90;11.32;;;;;;;6.66;70.91;99558.50;2534696;28;20056;-80
2024/01/01 01:54:45;;;;;;;4.55;3.97;;;;;;;6.65;70.91;99561.09;2535426;28;20061;-81
2024/01/01 01:56:03;;;;;;;4.97;3.60;;;;;;;6.65;71.15;99563.69;2535788;28;20100;-81
2024/01/01 01:57:17;;;;;;;5.53;3.58;;;;;;;6.63;71.01;99553.34;2535323;28;20467;-81
2024/01/01 01:58:32;;;;;;;5.50;2.58;;;;;;;6.62;71.03;99562.00;2534426;28;20095;-81
2024/01/01 01:59:46;;;;;;;5.75;3.45;;;;;;;6.63;70.75;99566.28;2535598;28;20541;-82
2024/01/01 02:01:00;;;;;;;6.97;2.78;;;;;;;6.64;70.86;99564.59;2535586;28;20049;-81
2024/01/01 02:02:15;;;;;;;5.07;2.35;;;;;;;6.63;70.44;99561.13;2535200;28;20045;-80
2024/01/01 02:03:29;;;;;;;6.43;3.75;;;;;;;6.66;70.31;99562.81;2535403;28;20047;-81
2024/01/01 02:04:42;;;;;;;8.43;3.50;;;;;;;6.66;70.50;99561.09;2534979;28;20052;-79
2024/01/01 02:05:58;;;;;;;3.30;2.67;;;;;;;6.67;70.66;99565.41;2534798;28;20045;-79
2024/01/01 02:07:11;;;;;;;5.70;2.90;;;;;;;6.66;70.71;99557.63;2534733;28;20061;-81
2024/01/01 02:08:26;;;;;;;5.68;2.80;;;;;;;6.66;70.85;99562.81;2534954;28;20045;-82
2024/01/01 02:09:39;;;;;;;4.25;2.53;;;;;;;6.67;70.80;99565.41;2534256;28;20053;-83
2024/01/01 02:10:54;;;;;;;2.90;2.30;;;;;;;6.68;70.15;99561.06;2534867;28;20045;-81
2024/01/01 02:12:08;;;;;;;5.60;2.33;;;;;;;6.68;70.54;99556.75;2534833;28;20046;-80
2024/01/01 02:13:24;;;;;;;3.22;2.33;;;;;;;6.70;70.07;99562.78;2534135;28;20045;-80
2024/01/01 02:14:38;;;;;;;6.28;2.95;;;;;;;6.71;70.34;99568.81;2534819;28;20397;-81
2024/01/01 02:15:52;;;;;;;5.47;2.03;;;;;;;6.71;70.40;99561.03;2535034;28;20049;-80
2024/01/01 02:17:06;;;;;;;4.25;2.33;;;;;;;6.70;70.24;99557.59;2526500;28;20054;-81
2024/01/01 02:18:20;;;;;;;6.18;3.15;;;;;;;6.71;70.80;99563.63;2534436;28;20336;-80
2024/01/01 02:19:34;;;;;;;3.80;2.75;;;;;;;6.69;70.88;99555.88;2534733;28;20042;-80
2024/01/01 02:20:48;;;;;;;5.53;3.20;;;;;;;6.69;70.43;99560.22;2535109;28;20051;-81
2024/01/01 02:22:03;;;;;;;3.38;2.65;;;;;;;6.67;70.74;99564.56;2534143;28;20045;-80
2024/01/01 02:23:19;;;;;;;6.10;2.40;;;;;;;6.65;70.59;99571.47;2534908;28;20136;-80
2024/01/01 02:24:33;;;;;;;4.10;2.40;;;;;;;6.64;70.60;99567.19;2534752;28;20041;-81
2024/01/01 02:25:47;;;;;;;3.22;2.28;;;;;;;6.63;70.84;99568.88;2534095;28;20037;-80
2024/01/01 02:27:01;;;;;;;3.45;2.47;;;;;;;6.63;70.83;99574.06;2534523;28;20041;-80
2024/01/01 02:28:15;;;;;;;5.18;2.25;;;;;;;6.63;71.09;99583.59;2534464;28;20045;-79
2024/01/01 02:29:28;;;;;;;3.53;2.33;;;;;;;6.64;70.96;99569.78;2533654;28;20410;-80
2024/01/01 02:30:43;;;;;;;9.98;2.75;;;;;;;6.64;71.12;99570.63;2534776;28;20046;-81
2024/01/01 02:31:56;;;;;;;4.80;2.55;;;;;;;6.63;71.08;99568.03;2534734;28;20049;-81
2024/01/01 02:33:11;;;;;;;4.72;2.55;;;;;;;6.62;71.28;99558.56;2534525;28;20473;-82
2024/01/01 02:34:26;;;;;;;6.32;2.60;;;;;;;6.63;71.05;99560.25;2534779;28;20048;-82
2024/01/01 02:35:41;;;;;;;8.40;2.95;;;;;;;6.61;70.92;99560.28;2534486;28;20048;-82
2024/01/01 02:36:55;;;;;;;7.50;2.95;;;;;;;6.59;70.90;99554.25;2534991;28;20052;-82
2024/01/01 02:38:09;;;;;;;5.88;2.25;;;;;;;6.58;71.42;99559.44;2534027;28;20052;-81
2024/01/01 02:39:24;;;;;;;7.28;3.47;;;;;;;6.54;70.85;99567.25;2535055;28;20049;-80
2024/01/01 02:40:38;;;;;;;4.40;3.22;;;;;;;6.52;71.12;99557.78;2534578;28;20148;-82
2024/01/01 02:41:52;;;;;;;6.32;3.28;;;;;;;6.50;70.90;99570.75;2534349;28;20042;-82
2024/01/01 02:43:06;;;;;;;7.85;3.17;;;;;;;6.49;71.02;99563.84;2534700;28;20049;-83
2024/01/01 02:44:19;;;;;;;5.72;2.80;;;;;;;6.46;71.12;99557.84;2534878;28;20407;-82
2024/01/01 02:45:34;;;;;;;10.30;3.10;;;;;;;6.44;70.96;99565.63;2533660;28;20045;-81
2024/01/01 02:46:47;;;;;;;7.18;3.67;;;;;;;6.44;71.60;99557.00;2534421;28;20045;-81
2024/01/01 02:48:02;;;;;;;6.07;2.47;;;;;;;6.43;71.33;99563.91;2534525;28;20041;-81
2024/01/01 02:49:15;;;;;;;5.47;3.40;;;;;;;6.43;71.41;99557.84;2534338;28;20422;-81
2024/01/01 02:50:30;;;;;;;5.65;2.08;;;;;;;6.40;71.49;99566.53;2533501;28;20045;-81
2024/01/01 02:51:43;;;;;;;5.47;2.95;;;;;;;6.38;71.38;99563.09;2534644;28;20056;-80
2024/01/01 02:52:57;;;;;;;7.30;3.55;;;;;;;6.35;71.84;99557.94;2534252;28;20088;-80
2024/01/01 02:54:11;;;;;;;6.50;3.00;;;;;;;6.35;71.74;99573.50;2533734;28;20042;-81
2024/01/01 02:55:27;;;;;;;4.07;3.53;;;;;;;6.36;72.04;99567.44;2534517;28;20487;-81
2024/01/01 02:56:40;;;;;;;3.90;2.95;;;;;;;6.39;71.91;99566.53;2534243;28;20049;-81
2024/01/01 02:57:54;;;;;;;7.03;3.00;;;;;;;6.43;71.78;99573.41;2534049;28;20041;-81
2024/01/01 02:59:08;;;;;;;11.85;4.20;;;;;;;6.47;72.01;99577.69;2526392;28;20045;-80
2024/01/01 03:00:22;;;;;;;5.22;2.53;;;;;;;6.50;72.08;99555.19;2534342;28;20041;-81
2024/01/01 03:01:36;;;;;;;4.35;2.60;;;;;;;6.54;71.75;99561.22;2533775;28;20487;-81
2024/01/01 03:02:51;;;;;;;5.45;3.30;;;;;;;6.57;71.81;99560.34;2534732;28;20041;-81
2024/01/01 03:04:05;;;;;;;7.38;3.55;;;;;;;6.60;71.26;99565.47;2534185;28;20046;-81
2024/01/01 03:05:22;;;;;;;4.35;2.97;;;;;;;6.63;71.64;99565.44;2534284;28;20045;-81
2024/01/01 03:06:35;;;;;;;4.20;2.97;;;;;;;6.62;71.57;99567.19;2534222;28;20053;-81
2024/01/01 03:07:50;;;;;;;5.95;2.55;;;;;;;6.66;72.32;99568.00;2534152;28;20595;-81
2024/01/01 03:09:04;;;;;;;9.80;4.70;;;;;;;6.65;71.65;99561.97;2535372;28;20049;-81
2024/01/01 03:10:18;;;;;;;4.65;2.60;;;;;;;6.67;71.36;99564.56;2534663;28;20054;-80
2024/01/01 03:11:34;;;;;;;4.50;3.38;;;;;;;6.69;71.59;99568.00;2533774;28;20045;-81
2024/01/01 03:12:47;;;;;;;7.75;2.63;;;;;;;6.67;71.72;99557.63;2534379;28;20053;-80
2024/01/01 03:14:01;;;;;;;6.55;2.67;;;;;;;6.68;71.15;99558.47;2533759;28;20047;-80
2024/01/01 03:15:15;;;;;;;4.20;2.65;;;;;;;6.66;71.30;99560.22;2534186;28;20045;-80
2024/01/01 03:16:29;;;;;;;9.02;2.78;;;;;;;6.63;71.55;99562.84;2534034;28;20146;-80
2024/01/01 03:17:45;;;;;;;7.28;2.78;;;;;;;6.60;71.53;99568.06;2533482;28;20042;-80
2024/01/01 03:18:59;;;;;;;2.70;1.65;;;;;;;6.54;71.96;99567.25;2534353;28;20068;-80
2024/01/01 03:20:13;;;;;;;5.03;2.38;;;;;;;6.51;71.68;99575.06;2534142;28;20045;-81
2024/01/01 03:21:27;;;;;;;10.45;3.45;;;;;;;6.46;71.78;99569.06;2533936;28;20055;-81
2024/01/01 03:22:42;;;;;;;5.88;2.45;;;;;;;6.46;72.17;99561.28;2534407;28;20042;-81
2024/01/01 03:23:56;;;;;;;7.90;2.33;;;;;;;6.47;72.18;99572.50;2534297;28;20483;-81
2024/01/01 03:25:09;;;;;;;3.00;2.03;;;;;;;6.48;72.28;99580.28;2525195;28;20058;-81
2024/01/01 03:26:24;;;;;;;4.20;1.90;;;;;;;6.49;72.49;99579.41;2533585;28;20611;-81
2024/01/01 03:27:38;;;;;;;5.10;2.47;;;;;;;6.48;72.27;99569.91;2533784;28;20057;-80
2024/01/01 03:28:53;;;;;;;5.32;2.00;;;;;;;6.48;72.26;99571.63;2534229;28;20049;-83
2024/01/01 03:30:08;;;;;;;5.70;2.13;;;;;;;6.46;71.80;99576.84;2533939;28;20044;-82
2024/01/01 03:31:23;;;;;;;3.83;2.72;;;;;;;6.44;71.71;99573.41;2534313;28;20059;-82
2024/01/01 03:32:36;;;;;;;6.85;2.38;;;;;;;6.42;71.84;99566.50;2534045;28;20071;-79
2024/01/01 03:33:50;;;;;;;3.72;1.90;;;;;;;6.41;72.15;99575.19;2533734;28;20041;-79
2024/01/01 03:35:05;;;;;;;5.88;2.35;;;;;;;6.40;72.03;99579.50;2534228;28;20041;-80
2024/01/01 03:36:19;;;;;;;4.93;1.95;;;;;;;6.38;72.01;99573.47;2534241;28;20083;-81
2024/01/01 03:37:33;;;;;;;4.55;1.95;;;;;;;6.36;72.07;99574.34;2533401;28;20048;-80
2024/01/01 03:38:47;;;;;;;4.47;1.77;;;;;;;6.34;71.98;99580.38;2534024;28;20049;-80
2024/01/01 03:40:01;;;;;;;9.80;4.57;;;;;;;6.36;71.65;99575.22;2533820;28;20111;-81
2024/01/01 03:41:15;;;;;;;3.80;1.67;;;;;;;6.38;71.56;99575.22;2534200;28;20049;-80
2024/01/01 03:42:28;;;;;;;4.03;1.80;;;;;;;6.37;71.60;99576.06;2533408;28;20048;-80
2024/01/01 03:43:44;;;;;;;5.40;2.05;;;;;;;6.38;71.55;99564.84;2533933;28;20418;-80
2024/01/01 03:44:58;;;;;;;6.70;3.83;;;;;;;6.40;71.74;99573.44;2533466;28;20514;-80
2024/01/01 03:46:12;;;;;;;2.50;1.10;;;;;;;6.40;71.62;99574.31;2533633;28;20123;-81
2024/01/01 03:47:27;;;;;;;7.10;2.10;;;;;;;6.39;71.30;99577.75;2533840;28;20498;-80
2024/01/01 03:48:42;;;;;;;5.22;1.60;;;;;;;6.40;71.32;99576.91;2533998;28;20418;-80
2024/01/01 03:49:56;;;;;;;1.60;0.93;;;;;;;6.43;71.61;99582.06;2533345;28;20502;-80
2024/01/01 03:51:11;;;;;;;8.10;2.08;;;;;;;6.46;71.71;99569.06;2533986;28;20055;-80
2024/01/01 03:52:24;;;;;;;5.45;2.60;;;;;;;6.48;71.29;99582.88;2533684;28;20048;-80
2024/01/01 03:53:39;;;;;;;6.85;4.20;;;;;;;6.48;71.04;99569.03;2533613;28;20049;-81
2024/01/01 03:54:52;;;;;;;3.97;2.00;;;;;;;6.49;71.07;99578.53;2534142;28;20049;-80
2024/01/01 03:56:07;;;;;;;13.00;2.20;;;;;;;6.49;71.11;99582.00;2534300;28;20045;-81
2024/01/01 03:57:21;;;;;;;4.18;1.63;;;;;;;6.51;70.70;99566.44;2534334;28;20053;-82
2024/01/01 03:58:36;;;;;;;4.07;1.23;;;;;;;6.52;71.09;99574.19;2534446;28;20050;-81
2024/01/01 03:59:51;;;;;;;3.85;1.52;;;;;;;6.54;70.66;99563.81;2534621;28;20053;-81
2024/01/01 04:01:12;;;;;;;4.57;3.05;;;;;;;6.55;70.79;99562.94;2534211;28;20534;-81
2024/01/01 04:02:25;;;;;;;5.90;1.63;;;;;;;6.53;70.69;99575.91;2533905;28;20132;-81
2024/01/01 04:03:40;;;;;;;14.68;2.83;;;;;;;6.53;70.33;99557.78;2534250;28;20064;-80
2024/01/01 04:04:53;;;;;;;5.45;2.30;;;;;;;6.53;70.39;99557.78;2533949;28;20049;-81
2024/01/01 04:06:08;;;;;;;2.25;1.45;;;;;;;6.53;70.52;99559.47;2533663;28;20048;-81
2024/01/01 04:07:21;;;;;;;4.25;1.38;;;;;;;6.51;70.48;99562.09;2534464;28;20060;-81
2024/01/01 04:08:36;;;;;;;6.75;1.75;;;;;;;6.52;70.58;99578.50;2534157;28;20045;-81
2024/01/01 04:09:49;;;;;;;8.18;3.03;;;;;;;6.53;70.83;99583.69;2533747;28;20037;-80
2024/01/01 04:11:04;;;;;;;6.88;1.58;;;;;;;6.54;70.55;99577.63;2534078;28;20049;-79
2024/01/01 04:12:17;;;;;;;3.20;1.55;;;;;;;6.52;70.47;99566.41;2534125;28;20067;-81
2024/01/01 04:13:32;;;;;;;5.43;1.67;;;;;;;6.53;70.37;99565.56;2533881;28;20107;-82
2024/01/01 04:14:46;;;;;;;6.38;1.85;;;;;;;6.53;69.89;99569.84;2534443;28;20051;-82
2024/01/01 04:16:03;;;;;;;5.78;1.52;;;;;;;6.54;69.68;99575.03;2534559;28;20414;-81
2024/01/01 04:17:16;;;;;;;6.95;1.88;;;;;;;6.54;69.98;99580.22;2534307;28;20121;-82
2024/01/01 04:18:31;;;;;;;6.25;2.55;;;;;;;6.56;69.93;99575.03;2534015;28;20041;-82
2024/01/01 04:19:47;;;;;;;4.70;1.42;;;;;;;6.54;69.82;99574.19;2534132;28;20118;-81
2024/01/01 04:21:01;;;;;;;4.43;1.55;;;;;;;6.54;69.84;99575.03;2534459;28;20061;-82
2024/01/01 04:22:15;;;;;;;4.40;2.03;;;;;;;6.55;69.78;99574.16;2533514;28;20052;-82
2024/01/01 04:23:29;;;;;;;3.20;1.42;;;;;;;6.58;69.45;99578.44;2534690;28;20045;-82
2024/01/01 04:24:43;;;;;;;3.95;1.25;;;;;;;6.60;69.53;99566.34;2534398;28;20046;-82
2024/01/01 04:25:57;;;;;;;4.75;1.65;;;;;;;6.61;69.04;99581.03;2533844;28;20067;-80
2024/01/01 04:27:11;;;;;;;2.75;1.17;;;;;;;6.63;69.02;99571.47;2534370;28;20503;-81
2024/01/01 04:28:25;;;;;;;4.28;1.00;;;;;;;6.65;68.82;99587.03;2534353;28;20055;-82
2024/01/01 04:29:39;;;;;;;4.30;1.48;;;;;;;6.64;68.77;99577.56;2534090;28;20061;-80
2024/01/01 04:30:54;;;;;;;8.30;0.98;;;;;;;6.64;68.77;99572.38;2534525;28;20056;-81
2024/01/01 04:32:08;;;;;;;4.55;2.78;;;;;;;6.67;68.00;99575.78;2534033;28;20049;-81
2024/01/01 04:33:23;;;;;;;6.40;1.73;;;;;;;6.69;68.44;99579.22;2533925;28;20102;-81
2024/01/01 04:34:36;;;;;;;10.27;1.27;;;;;;;6.71;68.50;99576.59;2534085;28;20049;-81
2024/01/01 04:35:51;;;;;;;3.13;1.73;;;;;;;6.71;68.57;99566.22;2533987;28;20045;-82
2024/01/01 04:37:06;;;;;;;3.65;1.50;;;;;;;6.72;68.36;99578.31;2534349;28;20669;-82
2024/01/01 04:38:19;;;;;;;6.60;1.60;;;;;;;6.73;68.51;99569.66;2533417;28;20052;-81
2024/01/01 04:39:34;;;;;;;5.15;1.52;;;;;;;6.74;68.52;99574.00;2533996;28;20064;-82
2024/01/01 04:40:47;;;;;;;7.97;1.25;;;;;;;6.74;68.26;99582.63;2534065;28;20046;-81
2024/01/01 04:42:03;;;;;;;4.78;1.27;;;;;;;6.75;67.98;99581.75;2534015;28;20047;-81
2024/01/01 04:43:16;;;;;;;7.82;1.25;;;;;;;6.75;68.11;99580.88;2534428;28;20053;-84
2024/01/01 04:44:30;;;;;;;7.50;1.40;;;;;;;6.74;67.90;99574.84;2535113;28;20110;-83
2024/01/01 04:45:44;;;;;;;3.55;1.42;;;;;;;6.74;67.31;99572.25;2534526;28;20041;-85
2024/01/01 04:47:00;;;;;;;2.80;1.27;;;;;;;6.73;67.42;99583.47;2535176;28;20124;-85
2024/01/01 04:48:15;;;;;;;4.75;1.52;;;;;;;6.72;67.51;99588.69;2534814;28;20050;-84
2024/01/01 04:49:29;;;;;;;2.53;1.50;;;;;;;6.67;67.73;99583.56;2535131;28;20057;-83
2024/01/01 04:50:43;;;;;;;4.78;1.35;;;;;;;6.66;67.93;99588.75;2534966;28;20046;-83
2024/01/01 04:51:57;;;;;;;4.47;1.60;;;;;;;6.63;68.14;99588.78;2535659;28;20050;-83
2024/01/01 04:53:11;;;;;;;4.05;2.97;;;;;;;6.62;68.10;99587.91;2534833;28;20041;-83
2024/01/01 04:54:25;;;;;;;2.75;1.33;;;;;;;6.63;67.94;99586.19;2535764;28;20422;-81
2024/01/01 04:55:38;;;;;;;4.60;1.42;;;;;;;6.65;67.94;99606.03;2539349;28;20060;-80
2024/01/01 04:56:53;;;;;;;5.05;1.58;;;;;;;6.67;68.09;99595.66;2529154;28;20630;-83
2024/01/01 04:58:06;;;;;;;7.65;2.33;;;;;;;6.68;68.10;99602.56;2532796;28;20041;-82
2024/01/01 04:59:21;;;;;;;3.25;1.23;;;;;;;6.68;68.14;99597.38;2534603;28;20045;-81
2024/01/01 05:00:34;;;;;;;5.45;1.20;;;;;;;6.71;67.81;99597.34;2534703;28;20611;-83
2024/01/01 05:01:49;;;;;;;2.60;1.00;;;;;;;6.71;67.34;99598.22;2534000;28;20048;-83
2024/01/01 05:03:02;;;;;;;7.25;1.33;;;;;;;6.73;67.60;99593.00;2535432;28;20396;-83
2024/01/01 05:04:20;;;;;;;3.60;1.05;;;;;;;6.74;67.13;99594.72;2532435;28;20114;-83
2024/01/01 05:05:33;;;;;;;8.10;2.30;;;;;;;6.74;67.56;99599.91;2526500;28;20144;-83
2024/01/01 05:06:48;;;;;;;2.60;1.10;;;;;;;6.72;67.10;99607.69;2533928;28;20469;-83
2024/01/01 05:08:01;;;;;;;7.53;1.38;;;;;;;6.73;67.04;99612.00;2534891;28;20046;-82
2024/01/01 05:09:15;;;;;;;3.47;1.15;;;;;;;6.75;67.40;99619.78;2533717;28;20057;-84
2024/01/01 05:10:29;;;;;;;6.88;2.67;;;;;;;6.75;67.41;99617.19;2534593;28;20046;-83
2024/01/01 05:11:43;;;;;;;1.33;0.98;;;;;;;6.76;67.47;99614.59;2533814;28;20048;-82
2024/01/01 05:12:57;;;;;;;5.88;2.17;;;;;;;6.76;67.20;99621.47;2534398;28;20048;-83
2024/01/01 05:14:11;;;;;;;2.42;1.13;;;;;;;6.77;67.35;99620.63;2533926;28;20503;-82
2024/01/01 05:15:25;;;;;;;4.20;1.60;;;;;;;6.78;67.42;99625.78;2535005;28;20456;-83
2024/01/01 05:16:39;;;;;;;4.75;2.17;;;;;;;6.78;67.19;99628.38;2534481;28;20053;-84
2024/01/01 05:17:52;;;;;;;5.78;1.70;;;;;;;6.80;67.42;99628.38;2534633;28;20029;-82
2024/01/01 05:19:07;;;;;;;3.80;1.52;;;;;;;6.82;67.32;99631.81;2533069;28;20121;-84
2024/01/01 05:20:22;;;;;;;5.55;1.80;;;;;;;6.84;67.21;99639.56;2534833;28;20686;-84
2024/01/01 05:21:36;;;;;;;2.65;1.60;;;;;;;6.86;66.26;99623.13;2533764;28;20080;-84
2024/01/01 05:22:49;;;;;;;2.92;1.35;;;;;;;6.89;66.82;99648.16;2534371;28;20049;-85
2024/01/01 05:24:04;;;;;;;2.90;1.33;;;;;;;6.90;66.54;99632.59;2534309;28;20045;-82
2024/01/01 05:25:17;;;;;;;6.18;1.65;;;;;;;6.91;66.59;99634.31;2534267;28;20049;-82
2024/01/01 05:26:32;;;;;;;7.90;1.98;;;;;;;6.92;66.67;99630.00;2524764;28;20045;-84
2024/01/01 05:27:45;;;;;;;4.90;1.88;;;;;;;6.92;66.64;99624.81;2523899;28;20056;-82
2024/01/01 05:28:59;;;;;;;5.13;2.00;;;;;;;6.92;66.59;99614.44;2525119;28;20053;-83
2024/01/01 05:30:13;;;;;;;4.72;1.10;;;;;;;6.91;66.68;99629.13;2523538;28;20046;-81
2024/01/01 05:31:28;;;;;;;10.05;3.45;;;;;;;6.91;66.42;99613.56;2525331;28;20046;-83
2024/01/01 05:32:41;;;;;;;7.35;1.30;;;;;;;6.93;66.25;99624.78;2524291;28;20534;-83
2024/01/01 05:33:56;;;;;;;4.90;1.85;;;;;;;6.95;65.77;99620.44;2524238;28;20042;-82
2024/01/01 05:35:09;;;;;;;1.90;1.23;;;;;;;6.97;65.82;99628.22;2523912;28;20057;-82
2024/01/01 05:36:25;;;;;;;3.30;1.92;;;;;;;6.98;65.99;99624.75;2524734;28;20141;-83
2024/01/01 05:37:38;;;;;;;8.23;1.35;;;;;;;6.97;65.89;99629.06;2526737;28;20061;-82
2024/01/01 05:38:53;;;;;;;5.95;1.60;;;;;;;6.99;65.41;99626.44;2533890;28;20494;-84
2024/01/01 05:40:07;;;;;;;11.18;6.30;;;;;;;7.01;65.52;99621.25;2533929;28;20053;-82
2024/01/01 05:41:21;;;;;;;11.32;7.07;;;;;;;7.01;65.44;99616.06;2534387;28;20073;-84
2024/01/01 05:42:35;;;;;;;9.05;6.53;;;;;;;7.01;65.39;99629.03;2534083;28;20053;-84
2024/01/01 05:43:50;;;;;;;7.45;1.40;;;;;;;7.03;64.97;99624.69;2528871;28;20648;-83
2024/01/01 05:45:05;;;;;;;34.92;25.80;;;;;;;7.04;64.85;99629.00;2523868;28;20042;-82
2024/01/01 05:46:19;;;;;;;3.92;2.22;;;;;;;7.03;64.85;99635.94;2524002;28;20158;-84
2024/01/01 05:47:32;;;;;;;27.38;17.15;;;;;;;7.03;64.89;99629.88;2524873;28;20057;-83
2024/01/01 05:48:47;;;;;;;20.10;16.10;;;;;;;7.04;64.69;99636.78;2524472;28;20038;-84
2024/01/01 05:50:00;;;;;;;32.13;23.17;;;;;;;7.04;64.89;99635.03;2523931;28;20048;-84
2024/01/01 05:51:16;;;;;;;16.30;9.80;;;;;;;7.06;64.56;99628.09;2524078;28;20359;-84
2024/01/01 05:52:31;;;;;;;25.65;15.35;;;;;;;7.07;64.91;99626.38;2524809;28;20050;-83